sensor_id;sensor_type;location;lat;lon;timestamp;P1;durP1;ratioP1;P2;durP2;ratioP2
16430;SDS011;8325;49.284;7.238;2024-03-25T05:04:13;10.20;;;5.67;;
16430;SDS011;8325;49.284;7.238;2024-03-25T05:08:24;8.63;;;5.22;;
16430;SDS011;8325;49.284;7.238;2024-03-25T05:12:35;9.50;;;5.57;;
16430;SDS011;8325;49.284;7.238;2024-03-25T05:16:45;9.00;;;5.17;;
16430;SDS011;8325;49.284;7.238;2024-03-25T05:20:57;10.20;;;5.70;;
16430;SDS011;8325;49.284;7.238;2024-03-25T05:25:08;11.33;;;5.77;;
16430;SDS011;8325;49.284;7.238;2024-03-25T05:29:18;9.30;;;4.93;;
16430;SDS011;8325;49.284;7.238;2024-03-25T05:33:29;11.83;;;6.27;;
16430;SDS011;8325;49.284;7.238;2024-03-25T05:37:39;15.93;;;8.43;;
16430;SDS011;8325;49.284;7.238;2024-03-25T05:41:50;18.87;;;8.57;;
16430;SDS011;8325;49.284;7.238;2024-03-25T05:46:00;15.13;;;8.10;;
16430;SDS011;8325;49.284;7.238;2024-03-25T05:50:12;19.53;;;9.10;;
16430;SDS011;8325;49.284;7.238;2024-03-25T05:54:23;17.73;;;8.90;;
16430;SDS011;8325;49.284;7.238;2024-03-25T05:58:33;16.97;;;8.50;;
16430;SDS011;8325;49.284;7.238;2024-03-25T06:02:44;18.63;;;8.90;;
16430;SDS011;8325;49.284;7.238;2024-03-25T06:06:55;20.00;;;9.10;;
16430;SDS011;8325;49.284;7.238;2024-03-25T06:11:05;19.27;;;9.93;;
16430;SDS011;8325;49.284;7.238;2024-03-25T06:15:17;18.70;;;9.67;;
16430;SDS011;8325;49.284;7.238;2024-03-25T06:19:27;19.90;;;10.17;;
16430;SDS011;8325;49.284;7.238;2024-03-25T06:23:38;18.33;;;9.87;;
16430;SDS011;8325;49.284;7.238;2024-03-25T06:27:48;16.50;;;8.77;;
16430;SDS011;8325;49.284;7.238;2024-03-25T06:31:59;14.27;;;8.43;;
16430;SDS011;8325;49.284;7.238;2024-03-25T06:36:28;18.17;;;9.77;;
16430;SDS011;8325;49.284;7.238;2024-03-25T06:40:39;18.50;;;9.15;;
16430;SDS011;8325;49.284;7.238;2024-03-25T06:44:49;18.97;;;10.00;;
16430;SDS011;8325;49.284;7.238;2024-03-25T06:49:00;17.00;;;9.60;;
16430;SDS011;8325;49.284;7.238;2024-03-25T06:53:11;18.20;;;9.23;;
16430;SDS011;8325;49.284;7.238;2024-03-25T06:57:22;19.85;;;10.00;;
16430;SDS011;8325;49.284;7.238;2024-03-25T07:01:32;20.20;;;10.07;;
16430;SDS011;8325;49.284;7.238;2024-03-25T07:05:44;17.88;;;9.60;;
16430;SDS011;8325;49.284;7.238;2024-03-25T07:09:55;16.80;;;8.27;;
16430;SDS011;8325;49.284;7.238;2024-03-25T07:14:06;14.65;;;8.10;;
16430;SDS011;8325;49.284;7.238;2024-03-25T07:18:17;18.10;;;9.90;;
16430;SDS011;8325;49.284;7.238;2024-03-25T07:22:27;20.55;;;10.18;;
16430;SDS011;8325;49.284;7.238;2024-03-25T07:26:39;17.77;;;9.38;;
16430;SDS011;8325;49.284;7.238;2024-03-25T07:30:50;16.20;;;9.25;;
16430;SDS011;8325;49.284;7.238;2024-03-25T07:35:00;15.40;;;8.70;;
16430;SDS011;8325;49.284;7.238;2024-03-25T07:39:11;15.00;;;8.55;;
16430;SDS011;8325;49.284;7.238;2024-03-25T07:43:22;14.77;;;7.97;;
16430;SDS011;8325;49.284;7.238;2024-03-25T07:47:33;13.88;;;8.40;;
16430;SDS011;8325;49.284;7.238;2024-03-25T07:51:43;17.27;;;8.07;;
16430;SDS011;8325;49.284;7.238;2024-03-25T07:55:55;16.40;;;8.50;;
16430;SDS011;8325;49.284;7.238;2024-03-25T08:00:05;13.60;;;8.50;;
16430;SDS011;8325;49.284;7.238;2024-03-25T08:04:25;15.10;;;8.30;;
16430;SDS011;8325;49.284;7.238;2024-03-25T08:08:35;15.60;;;8.70;;
16430;SDS011;8325;49.284;7.238;2024-03-25T08:12:46;13.23;;;8.32;;
16430;SDS011;8325;49.284;7.238;2024-03-25T08:16:57;18.00;;;9.85;;
16430;SDS011;8325;49.284;7.238;2024-03-25T08:21:07;15.32;;;9.85;;
16430;SDS011;8325;49.284;7.238;2024-03-25T08:25:18;15.25;;;9.35;;
16430;SDS011;8325;49.284;7.238;2024-03-25T08:29:29;15.80;;;9.02;;
16430;SDS011;8325;49.284;7.238;2024-03-25T08:33:39;14.68;;;9.02;;
16430;SDS011;8325;49.284;7.238;2024-03-25T08:37:50;16.33;;;8.35;;
16430;SDS011;8325;49.284;7.238;2024-03-25T08:42:00;13.85;;;8.60;;
16430;SDS011;8325;49.284;7.238;2024-03-25T08:46:11;11.05;;;7.03;;
16430;SDS011;8325;49.284;7.238;2024-03-25T08:50:22;14.77;;;8.65;;
16430;SDS011;8325;49.284;7.238;2024-03-25T08:54:32;14.30;;;8.32;;
16430;SDS011;8325;49.284;7.238;2024-03-25T08:58:43;15.00;;;9.00;;
16430;SDS011;8325;49.284;7.238;2024-03-25T09:02:54;15.70;;;9.00;;
16430;SDS011;8325;49.284;7.238;2024-03-25T09:07:04;15.55;;;9.13;;
16430;SDS011;8325;49.284;7.238;2024-03-25T09:11:15;16.40;;;8.70;;
16430;SDS011;8325;49.284;7.238;2024-03-25T09:15:27;14.60;;;9.00;;
16430;SDS011;8325;49.284;7.238;2024-03-25T09:19:37;14.48;;;8.50;;
16430;SDS011;8325;49.284;7.238;2024-03-25T09:23:48;14.73;;;8.15;;
16430;SDS011;8325;49.284;7.238;2024-03-25T09:27:58;13.10;;;8.35;;
16430;SDS011;8325;49.284;7.238;2024-03-25T09:32:09;12.60;;;7.93;;
16430;SDS011;8325;49.284;7.238;2024-03-25T09:36:20;13.80;;;7.70;;
16430;SDS011;8325;49.284;7.238;2024-03-25T09:40:35;11.20;;;7.15;;
16430;SDS011;8325;49.284;7.238;2024-03-25T09:44:48;9.45;;;6.13;;
16430;SDS011;8325;49.284;7.238;2024-03-25T09:48:58;6.35;;;4.10;;
16430;SDS011;8325;49.284;7.238;2024-03-25T09:53:09;6.45;;;3.80;;
16430;SDS011;8325;49.284;7.238;2024-03-25T09:57:20;7.05;;;4.13;;
16430;SDS011;8325;49.284;7.238;2024-03-25T10:01:31;4.55;;;3.55;;
16430;SDS011;8325;49.284;7.238;2024-03-25T10:05:42;8.02;;;4.63;;
16430;SDS011;8325;49.284;7.238;2024-03-25T10:09:53;10.80;;;5.03;;
16430;SDS011;8325;49.284;7.238;2024-03-25T10:14:04;5.43;;;3.30;;
16430;SDS011;8325;49.284;7.238;2024-03-25T10:18:15;7.97;;;3.85;;
16430;SDS011;8325;49.284;7.238;2024-03-25T10:22:27;8.05;;;3.92;;
16430;SDS011;8325;49.284;7.238;2024-03-25T10:26:38;9.18;;;3.65;;
16430;SDS011;8325;49.284;7.238;2024-03-25T10:30:49;5.63;;;3.70;;
16430;SDS011;8325;49.284;7.238;2024-03-25T10:34:59;6.22;;;3.10;;
16430;SDS011;8325;49.284;7.238;2024-03-25T10:39:11;5.95;;;3.22;;
16430;SDS011;8325;49.284;7.238;2024-03-25T10:43:23;6.07;;;2.85;;
16430;SDS011;8325;49.284;7.238;2024-03-25T10:47:39;6.18;;;3.10;;
16430;SDS011;8325;49.284;7.238;2024-03-25T10:51:50;7.47;;;3.13;;
16430;SDS011;8325;49.284;7.238;2024-03-25T10:56:01;2.70;;;2.10;;
16430;SDS011;8325;49.284;7.238;2024-03-25T11:00:15;3.05;;;2.35;;
16430;SDS011;8325;49.284;7.238;2024-03-25T11:04:26;2.92;;;2.55;;
16430;SDS011;8325;49.284;7.238;2024-03-25T11:08:37;4.30;;;2.50;;
16430;SDS011;8325;49.284;7.238;2024-03-25T11:12:49;4.70;;;2.30;;
16430;SDS011;8325;49.284;7.238;2024-03-25T11:17:00;3.35;;;1.95;;
16430;SDS011;8325;49.284;7.238;2024-03-25T11:21:11;3.30;;;2.10;;
16430;SDS011;8325;49.284;7.238;2024-03-25T11:25:24;3.08;;;1.98;;
16430;SDS011;8325;49.284;7.238;2024-03-25T11:29:35;2.60;;;1.73;;
16430;SDS011;8325;49.284;7.238;2024-03-25T11:33:45;2.42;;;1.88;;
16430;SDS011;8325;49.284;7.238;2024-03-25T11:37:57;3.45;;;1.50;;
16430;SDS011;8325;49.284;7.238;2024-03-25T11:42:08;5.20;;;1.85;;
16430;SDS011;8325;49.284;7.238;2024-03-25T11:46:23;2.60;;;1.33;;
16430;SDS011;8325;49.284;7.238;2024-03-25T11:50:35;2.97;;;1.98;;
16430;SDS011;8325;49.284;7.238;2024-03-25T11:54:53;3.42;;;1.95;;
16430;SDS011;8325;49.284;7.238;2024-03-25T11:59:04;2.45;;;1.60;;
16430;SDS011;8325;49.284;7.238;2024-03-25T12:03:15;2.63;;;1.83;;
16430;SDS011;8325;49.284;7.238;2024-03-25T12:07:29;1.60;;;1.40;;
16430;SDS011;8325;49.284;7.238;2024-03-25T12:11:39;2.22;;;1.80;;
16430;SDS011;8325;49.284;7.238;2024-03-25T12:15:51;2.47;;;1.40;;
16430;SDS011;8325;49.284;7.238;2024-03-25T12:20:05;2.72;;;1.60;;
16430;SDS011;8325;49.284;7.238;2024-03-25T12:24:19;2.30;;;1.40;;
16430;SDS011;8325;49.284;7.238;2024-03-25T12:28:33;2.88;;;1.40;;
16430;SDS011;8325;49.284;7.238;2024-03-25T12:32:47;2.33;;;1.33;;
16430;SDS011;8325;49.284;7.238;2024-03-25T12:37:02;4.75;;;1.80;;
16430;SDS011;8325;49.284;7.238;2024-03-25T12:41:16;4.05;;;1.70;;
16430;SDS011;8325;49.284;7.238;2024-03-25T12:45:27;2.08;;;1.65;;
16430;SDS011;8325;49.284;7.238;2024-03-25T12:49:38;2.85;;;2.00;;
16430;SDS011;8325;49.284;7.238;2024-03-25T12:53:49;2.72;;;1.88;;
16430;SDS011;8325;49.284;7.238;2024-03-25T12:58:01;3.17;;;2.20;;
16430;SDS011;8325;49.284;7.238;2024-03-25T13:02:12;3.00;;;1.50;;
16430;SDS011;8325;49.284;7.238;2024-03-25T13:06:23;2.22;;;1.58;;
16430;SDS011;8325;49.284;7.238;2024-03-25T13:10:34;1.20;;;1.10;;
16430;SDS011;8325;49.284;7.238;2024-03-25T13:14:45;2.25;;;1.30;;
16430;SDS011;8325;49.284;7.238;2024-03-25T13:18:55;3.28;;;1.30;;
16430;SDS011;8325;49.284;7.238;2024-03-25T13:23:06;1.40;;;1.20;;
16430;SDS011;8325;49.284;7.238;2024-03-25T13:27:17;2.50;;;1.30;;
16430;SDS011;8325;49.284;7.238;2024-03-25T13:31:27;1.83;;;1.17;;
16430;SDS011;8325;49.284;7.238;2024-03-25T13:35:38;2.50;;;1.23;;
16430;SDS011;8325;49.284;7.238;2024-03-25T13:39:50;2.83;;;1.30;;
16430;SDS011;8325;49.284;7.238;2024-03-25T13:44:01;1.60;;;1.20;;
16430;SDS011;8325;49.284;7.238;2024-03-25T13:48:11;1.60;;;1.10;;
16430;SDS011;8325;49.284;7.238;2024-03-25T13:52:22;2.42;;;1.60;;
16430;SDS011;8325;49.284;7.238;2024-03-25T13:56:33;2.40;;;1.15;;
16430;SDS011;8325;49.284;7.238;2024-03-25T14:00:43;2.50;;;1.50;;
16430;SDS011;8325;49.284;7.238;2024-03-25T14:04:54;1.80;;;1.60;;
16430;SDS011;8325;49.284;7.238;2024-03-25T14:09:04;3.50;;;1.70;;
16430;SDS011;8325;49.284;7.238;2024-03-25T14:13:15;1.95;;;1.48;;
16430;SDS011;8325;49.284;7.238;2024-03-25T14:17:26;2.08;;;1.40;;
16430;SDS011;8325;49.284;7.238;2024-03-25T14:21:36;2.72;;;1.58;;
16430;SDS011;8325;49.284;7.238;2024-03-25T14:25:47;2.10;;;1.20;;
16430;SDS011;8325;49.284;7.238;2024-03-25T14:29:57;2.25;;;1.40;;
16430;SDS011;8325;49.284;7.238;2024-03-25T14:34:08;2.05;;;1.40;;
16430;SDS011;8325;49.284;7.238;2024-03-25T14:38:19;2.00;;;1.30;;
16430;SDS011;8325;49.284;7.238;2024-03-25T14:42:30;1.23;;;1.10;;
16430;SDS011;8325;49.284;7.238;2024-03-25T14:46:42;3.45;;;1.40;;
16430;SDS011;8325;49.284;7.238;2024-03-25T14:50:53;2.38;;;1.30;;
16430;SDS011;8325;49.284;7.238;2024-03-25T14:55:03;1.58;;;1.05;;
16430;SDS011;8325;49.284;7.238;2024-03-25T14:59:14;1.95;;;1.30;;
16430;SDS011;8325;49.284;7.238;2024-03-25T15:03:25;1.92;;;1.02;;
16430;SDS011;8325;49.284;7.238;2024-03-25T15:07:35;1.30;;;1.20;;
16430;SDS011;8325;49.284;7.238;2024-03-25T15:11:46;1.88;;;1.27;;
16430;SDS011;8325;49.284;7.238;2024-03-25T15:15:57;1.70;;;1.20;;
16430;SDS011;8325;49.284;7.238;2024-03-25T15:20:08;2.10;;;1.40;;
16430;SDS011;8325;49.284;7.238;2024-03-25T15:24:19;3.25;;;2.63;;
16430;SDS011;8325;49.284;7.238;2024-03-25T15:28:31;2.28;;;1.20;;
16430;SDS011;8325;49.284;7.238;2024-03-25T15:32:43;2.50;;;1.25;;
16430;SDS011;8325;49.284;7.238;2024-03-25T15:36:54;2.63;;;1.60;;
16430;SDS011;8325;49.284;7.238;2024-03-25T15:41:06;3.85;;;1.27;;
16430;SDS011;8325;49.284;7.238;2024-03-25T15:45:16;1.90;;;1.05;;
16430;SDS011;8325;49.284;7.238;2024-03-25T15:49:27;2.30;;;1.50;;
16430;SDS011;8325;49.284;7.238;2024-03-25T15:53:38;2.28;;;1.30;;
16430;SDS011;8325;49.284;7.238;2024-03-25T15:57:48;1.38;;;1.15;;
16430;SDS011;8325;49.284;7.238;2024-03-25T16:01:59;2.30;;;1.25;;
16430;SDS011;8325;49.284;7.238;2024-03-25T16:06:10;1.50;;;1.23;;
16430;SDS011;8325;49.284;7.238;2024-03-25T16:10:38;4.90;;;1.88;;
16430;SDS011;8325;49.284;7.238;2024-03-25T16:14:49;4.10;;;1.45;;
16430;SDS011;8325;49.284;7.238;2024-03-25T16:19:00;2.60;;;1.40;;
16430;SDS011;8325;49.284;7.238;2024-03-25T16:23:10;2.08;;;1.20;;
16430;SDS011;8325;49.284;7.238;2024-03-25T16:27:22;5.03;;;4.50;;
16430;SDS011;8325;49.284;7.238;2024-03-25T16:31:32;1.90;;;1.42;;
16430;SDS011;8325;49.284;7.238;2024-03-25T16:35:43;1.88;;;1.30;;
16430;SDS011;8325;49.284;7.238;2024-03-25T16:39:54;3.65;;;1.48;;
16430;SDS011;8325;49.284;7.238;2024-03-25T16:44:04;10.00;;;6.32;;
16430;SDS011;8325;49.284;7.238;2024-03-25T16:48:15;3.42;;;1.63;;
16430;SDS011;8325;49.284;7.238;2024-03-25T16:52:26;2.40;;;2.10;;
16430;SDS011;8325;49.284;7.238;2024-03-25T16:56:37;2.85;;;1.45;;
16430;SDS011;8325;49.284;7.238;2024-03-25T17:00:49;1.50;;;1.25;;
16430;SDS011;8325;49.284;7.238;2024-03-25T17:04:59;1.98;;;1.50;;
16430;SDS011;8325;49.284;7.238;2024-03-25T17:09:13;2.45;;;1.65;;
16430;SDS011;8325;49.284;7.238;2024-03-25T17:13:24;1.80;;;1.40;;
16430;SDS011;8325;49.284;7.238;2024-03-25T17:17:35;3.78;;;2.10;;
16430;SDS011;8325;49.284;7.238;2024-03-25T17:21:45;3.58;;;1.55;;
16430;SDS011;8325;49.284;7.238;2024-03-25T17:25:56;2.67;;;1.58;;
16430;SDS011;8325;49.284;7.238;2024-03-25T17:30:07;4.25;;;2.10;;
16430;SDS011;8325;49.284;7.238;2024-03-25T17:34:19;1.50;;;1.40;;
16430;SDS011;8325;49.284;7.238;2024-03-25T17:38:31;2.63;;;1.38;;
16430;SDS011;8325;49.284;7.238;2024-03-25T17:42:43;2.88;;;2.05;;
16430;SDS011;8325;49.284;7.238;2024-03-25T17:46:54;1.83;;;1.42;;
16430;SDS011;8325;49.284;7.238;2024-03-25T17:51:07;2.47;;;2.10;;
16430;SDS011;8325;49.284;7.238;2024-03-25T17:55:18;2.10;;;1.55;;
16430;SDS011;8325;49.284;7.238;2024-03-25T17:59:28;3.85;;;2.20;;
16430;SDS011;8325;49.284;7.238;2024-03-25T18:03:40;4.20;;;2.58;;
16430;SDS011;8325;49.284;7.238;2024-03-25T18:07:51;10.20;;;7.40;;
16430;SDS011;8325;49.284;7.238;2024-03-25T18:12:02;4.97;;;4.47;;
16430;SDS011;8325;49.284;7.238;2024-03-25T18:16:14;5.38;;;3.50;;
16430;SDS011;8325;49.284;7.238;2024-03-25T18:20:25;6.30;;;3.70;;
16430;SDS011;8325;49.284;7.238;2024-03-25T18:24:35;4.38;;;3.83;;
16430;SDS011;8325;49.284;7.238;2024-03-25T18:28:47;2.40;;;2.20;;
16430;SDS011;8325;49.284;7.238;2024-03-25T18:32:58;4.07;;;2.65;;
16430;SDS011;8325;49.284;7.238;2024-03-25T18:37:09;4.13;;;2.75;;
16430;SDS011;8325;49.284;7.238;2024-03-25T18:41:19;5.80;;;2.50;;
16430;SDS011;8325;49.284;7.238;2024-03-25T18:45:31;3.15;;;2.55;;
16430;SDS011;8325;49.284;7.238;2024-03-25T18:49:42;3.88;;;3.10;;
16430;SDS011;8325;49.284;7.238;2024-03-25T18:53:54;2.28;;;2.00;;
16430;SDS011;8325;49.284;7.238;2024-03-25T18:58:05;1.92;;;1.67;;
16430;SDS011;8325;49.284;7.238;2024-03-25T19:02:18;3.00;;;1.60;;
16430;SDS011;8325;49.284;7.238;2024-03-25T19:06:29;2.65;;;1.80;;
16430;SDS011;8325;49.284;7.238;2024-03-25T19:10:40;2.83;;;1.52;;
16430;SDS011;8325;49.284;7.238;2024-03-25T19:14:51;4.65;;;2.30;;
16430;SDS011;8325;49.284;7.238;2024-03-25T19:19:02;2.95;;;1.80;;
16430;SDS011;8325;49.284;7.238;2024-03-25T19:23:13;3.25;;;1.67;;
16430;SDS011;8325;49.284;7.238;2024-03-25T19:27:23;4.05;;;2.28;;
16430;SDS011;8325;49.284;7.238;2024-03-25T19:31:34;3.72;;;2.47;;
16430;SDS011;8325;49.284;7.238;2024-03-25T19:35:44;3.03;;;1.92;;
16430;SDS011;8325;49.284;7.238;2024-03-25T19:39:55;5.10;;;3.13;;
16430;SDS011;8325;49.284;7.238;2024-03-25T19:44:06;4.05;;;3.50;;
16430;SDS011;8325;49.284;7.238;2024-03-25T19:48:17;2.20;;;2.00;;
16430;SDS011;8325;49.284;7.238;2024-03-25T19:52:28;2.25;;;1.48;;
16430;SDS011;8325;49.284;7.238;2024-03-25T19:56:39;3.85;;;2.40;;
16430;SDS011;8325;49.284;7.238;2024-03-25T20:00:51;2.70;;;1.83;;
16430;SDS011;8325;49.284;7.238;2024-03-25T20:05:02;3.13;;;2.50;;
16430;SDS011;8325;49.284;7.238;2024-03-25T20:09:13;4.55;;;1.70;;
16430;SDS011;8325;49.284;7.238;2024-03-25T20:13:23;2.33;;;1.83;;
16430;SDS011;8325;49.284;7.238;2024-03-25T20:17:34;3.38;;;1.85;;
16430;SDS011;8325;49.284;7.238;2024-03-25T20:21:45;3.47;;;2.00;;
16430;SDS011;8325;49.284;7.238;2024-03-25T20:25:55;4.05;;;2.90;;
16430;SDS011;8325;49.284;7.238;2024-03-25T20:30:07;9.25;;;5.70;;
16430;SDS011;8325;49.284;7.238;2024-03-25T20:34:18;1.73;;;1.50;;
16430;SDS011;8325;49.284;7.238;2024-03-25T20:38:29;3.80;;;1.88;;
16430;SDS011;8325;49.284;7.238;2024-03-25T20:42:40;3.35;;;2.10;;
16430;SDS011;8325;49.284;7.238;2024-03-25T20:46:50;5.57;;;2.13;;
16430;SDS011;8325;49.284;7.238;2024-03-25T20:51:01;3.80;;;2.30;;
16430;SDS011;8325;49.284;7.238;2024-03-25T20:55:12;3.67;;;2.30;;
16430;SDS011;8325;49.284;7.238;2024-03-25T20:59:23;5.30;;;2.78;;
16430;SDS011;8325;49.284;7.238;2024-03-25T21:03:39;3.53;;;2.45;;
16430;SDS011;8325;49.284;7.238;2024-03-25T21:08:06;4.05;;;2.45;;
16430;SDS011;8325;49.284;7.238;2024-03-25T21:12:17;6.35;;;3.22;;
16430;SDS011;8325;49.284;7.238;2024-03-25T21:16:27;5.97;;;2.85;;
16430;SDS011;8325;49.284;7.238;2024-03-25T21:20:41;5.07;;;3.47;;
16430;SDS011;8325;49.284;7.238;2024-03-25T21:24:59;4.68;;;2.90;;
16430;SDS011;8325;49.284;7.238;2024-03-25T21:29:12;4.60;;;2.92;;
16430;SDS011;8325;49.284;7.238;2024-03-25T21:33:31;4.22;;;2.85;;
16430;SDS011;8325;49.284;7.238;2024-03-25T21:37:50;4.15;;;2.45;;
16430;SDS011;8325;49.284;7.238;2024-03-25T21:42:01;5.05;;;2.50;;
16430;SDS011;8325;49.284;7.238;2024-03-25T21:46:14;6.18;;;2.58;;
16430;SDS011;8325;49.284;7.238;2024-03-25T21:50:29;4.07;;;3.20;;
16430;SDS011;8325;49.284;7.238;2024-03-25T21:54:39;3.83;;;2.80;;
16430;SDS011;8325;49.284;7.238;2024-03-25T21:58:53;2.83;;;2.20;;
16430;SDS011;8325;49.284;7.238;2024-03-25T22:03:04;3.50;;;2.95;;
16430;SDS011;8325;49.284;7.238;2024-03-25T22:07:15;4.35;;;2.30;;
16430;SDS011;8325;49.284;7.238;2024-03-25T22:11:26;5.30;;;2.58;;
16430;SDS011;8325;49.284;7.238;2024-03-25T22:15:37;3.60;;;2.05;;
16430;SDS011;8325;49.284;7.238;2024-03-25T22:19:49;8.07;;;2.88;;
16430;SDS011;8325;49.284;7.238;2024-03-25T22:24:00;7.30;;;4.30;;
16430;SDS011;8325;49.284;7.238;2024-03-25T22:28:11;7.32;;;4.47;;
